Time;durP1;ratioP1;P1;durP2;ratioP2;P2;SDS_P1;SDS_P2;PMS_P1;PMS_P2;Temp;Humidity;BMP_temperature;BMP_pressure;BME280_temperature;BME280_humidity;BME280_pressure;Samples;Min_cycle;Max_cycle;Signal;HPM_P1;HPM_P2
2020/12/02 00:00:37;;;;;;;20.70;8.75;;;;;;;9.97;60.47;101571.88;4424250;32;20140;-75
2020/12/02 00:06:02;;;;;;;26.50;9.02;;;;;;;10.07;60.71;101551.31;3957541;32;15727608;-76
2020/12/02 00:11:09;;;;;;;23.33;10.17;;;;;;;10.25;60.39;101545.56;4008128;31;15017455;-75
2020/12/02 00:13:40;;;;;;;22.52;9.35;;;;;;;10.25;60.39;101545.56;4457895;32;20064;-76
2020/12/02 00:16:08;;;;;;;20.35;8.63;;;;;;;9.80;61.30;101532.66;4458246;32;20446;-75
2020/12/02 00:18:35;;;;;;;20.80;7.80;;;;;;;9.62;61.88;101532.00;4459114;32;20160;-76
2020/12/02 00:21:02;;;;;;;22.50;9.35;;;;;;;9.66;62.23;101522.34;4460016;32;20429;-75
2020/12/02 00:23:28;;;;;;;19.17;8.02;;;;;;;9.64;61.68;101519.13;4465669;32;20072;-76
2020/12/02 00:25:54;;;;;;;20.48;8.18;;;;;;;9.66;61.37;101519.53;4462700;32;20067;-76
2020/12/02 00:28:19;;;;;;;16.08;7.95;;;;;;;9.73;60.96;101519.47;4459158;32;20081;-75
2020/12/02 00:30:45;;;;;;;21.33;8.10;;;;;;;9.66;60.59;101508.28;4455870;32;20041;-75
2020/12/02 00:35:50;;;;;;;22.45;8.45;;;;;;;9.92;60.61;101507.63;3985454;32;15022909;-76
2020/12/02 00:38:18;;;;;;;21.60;8.15;;;;;;;9.92;60.61;101507.63;4442588;32;20029;-76
2020/12/02 00:40:44;;;;;;;20.08;8.30;;;;;;;9.60;61.17;101495.88;4443318;32;20797;-76
2020/12/02 00:43:12;;;;;;;17.02;8.48;;;;;;;9.60;61.04;101498.69;4438292;32;20013;-73
2020/12/02 00:45:39;;;;;;;23.20;8.52;;;;;;;9.62;61.11;101501.91;4438754;32;20026;-73
2020/12/02 00:48:09;;;;;;;18.30;7.82;;;;;;;9.56;62.08;101495.13;4439923;32;20061;-73
2020/12/02 00:50:55;;;;;;;22.33;7.22;;;;;;;9.56;61.96;101499.94;4440568;32;20242;-73
2020/12/02 00:53:25;;;;;;;17.05;8.60;;;;;;;9.59;61.85;101499.09;4389787;32;20112;-73
2020/12/02 00:55:51;;;;;;;20.10;8.90;;;;;;;9.49;61.90;101495.19;4394305;32;20030;-73
2020/12/02 01:01:28;;;;;;;19.58;8.30;;;;;;;9.56;61.70;101481.06;3987273;32;15026288;-73
2020/12/02 01:03:57;;;;;;;17.00;7.50;;;;;;;9.65;62.07;101475.78;4434784;32;20017;-73
2020/12/02 01:06:23;;;;;;;17.83;8.32;;;;;;;9.53;62.05;101479.09;4435798;32;20051;-73
2020/12/02 01:08:50;;;;;;;23.48;7.70;;;;;;;9.59;62.18;101480.25;4436178;32;20018;-74
2020/12/02 01:11:31;;;;;;;21.27;8.40;;;;;;;9.63;61.99;101475.38;4438635;32;20045;-74
2020/12/02 01:14:01;;;;;;;17.75;7.00;;;;;;;9.65;61.92;101460.91;4434963;32;20030;-73
2020/12/02 01:16:36;;;;;;;22.35;7.45;;;;;;;9.59;62.28;101463.38;4437158;32;20085;-74
2020/12/02 01:19:06;;;;;;;14.50;6.95;;;;;;;9.58;62.24;101461.78;4434659;32;20033;-74
2020/12/02 01:21:37;;;;;;;20.83;7.62;;;;;;;9.56;62.08;101458.59;4438338;32;20101;-75
2020/12/02 01:24:07;;;;;;;20.62;7.10;;;;;;;9.62;61.62;101442.88;4434349;32;20095;-74
2020/12/02 01:26:39;;;;;;;16.25;6.62;;;;;;;9.58;61.91;101449.75;4434008;32;20399;-74
2020/12/02 01:29:15;;;;;;;12.93;5.78;;;;;;;9.68;61.48;101452.47;4436288;32;20042;-74
2020/12/02 01:31:45;;;;;;;13.25;5.57;;;;;;;9.69;61.25;101442.81;4434400;32;20037;-74
2020/12/02 01:34:10;;;;;;;17.70;4.82;;;;;;;9.58;61.97;101439.28;4435807;32;20069;-74
2020/12/02 01:39:38;;;;;;;16.10;5.82;;;;;;;9.99;61.55;101419.63;3983053;32;15131104;-75
2020/12/02 01:42:05;;;;;;;14.23;5.22;;;;;;;9.99;61.55;101419.63;4436896;32;20077;-74
2020/12/02 01:44:30;;;;;;;12.25;4.90;;;;;;;9.46;62.72;101414.53;4434228;32;20077;-73
2020/12/02 01:52:47;;;;;;;15.15;5.22;;;;;;;10.08;61.13;101403.88;3983872;32;15022391;-75
2020/12/02 01:55:19;;;;;;;15.80;5.68;;;;;;;10.08;61.13;101403.88;4440847;32;20021;-76
2020/12/02 01:57:48;;;;;;;19.08;5.18;;;;;;;9.65;62.44;101399.91;4439417;32;20077;-76
2020/12/02 02:00:19;;;;;;;20.10;6.03;;;;;;;9.60;63.08;101397.53;4438888;32;20089;-76
2020/12/02 02:08:01;;;;;;;17.08;5.70;;;;;;;10.07;61.73;101396.66;3985262;32;15022808;-75
2020/12/02 02:10:35;;;;;;;16.10;5.32;;;;;;;9.68;62.32;101389.81;4436732;32;20091;-75
2020/12/02 02:15:56;;;;;;;14.57;4.65;;;;;;;10.16;61.78;101390.53;3986315;32;15021144;-73
2020/12/02 02:18:25;;;;;;;16.23;4.95;;;;;;;10.16;61.78;101390.53;4440774;32;20068;-74
2020/12/02 02:20:57;;;;;;;19.08;5.70;;;;;;;9.82;62.08;101378.44;4439302;32;20051;-75
2020/12/02 02:23:42;;;;;;;20.48;5.10;;;;;;;9.63;63.33;101377.03;4441092;32;20071;-75
2020/12/02 02:26:18;;;;;;;26.37;5.78;;;;;;;9.61;63.39;101364.63;4439330;32;20077;-75
2020/12/02 02:29:02;;;;;;;;;;;;;;;9.72;62.92;101368.09;4441005;32;20420;-74
2020/12/02 02:31:31;;;;;;;14.20;4.40;;;;;;;9.78;62.62;101364.44;4435680;32;19984;-75
2020/12/02 02:33:58;;;;;;;16.48;4.20;;;;;;;9.78;62.97;101358.00;4440191;32;20515;-75
2020/12/02 02:36:27;;;;;;;20.45;5.30;;;;;;;9.73;63.10;101339.56;4437655;32;20021;-74
2020/12/02 02:38:55;;;;;;;19.70;5.15;;;;;;;9.77;62.67;101329.09;4441718;32;20483;-75
2020/12/02 02:41:24;;;;;;;19.60;4.97;;;;;;;9.69;63.26;101326.78;4441824;32;20161;-74
2020/12/02 02:43:50;;;;;;;25.48;4.30;;;;;;;9.78;63.46;101327.88;4439580;32;20025;-75
2020/12/02 02:46:15;;;;;;;28.58;4.85;;;;;;;9.75;63.42;101311.84;4439552;32;20119;-76
2020/12/02 02:48:41;;;;;;;17.48;4.68;;;;;;;9.67;62.94;101307.53;4440325;32;20049;-74
2020/12/02 02:51:07;;;;;;;19.87;4.30;;;;;;;9.53;63.49;101307.69;4436019;32;20678;-75
2020/12/02 02:53:33;;;;;;;17.77;4.65;;;;;;;9.43;63.20;101303.00;4424978;32;20130;-75
2020/12/02 02:55:59;;;;;;;30.00;5.82;;;;;;;9.46;63.36;101295.72;4423429;32;20044;-75
2020/12/02 02:58:26;;;;;;;23.67;4.80;;;;;;;9.47;63.61;101292.50;4426001;32;20058;-75
2020/12/02 03:00:54;;;;;;;17.83;4.78;;;;;;;9.51;62.95;101293.25;4424231;32;20076;-75
2020/12/02 03:03:20;;;;;;;23.58;4.95;;;;;;;9.62;62.56;101290.31;4422340;32;20125;-75
2020/12/02 03:05:46;;;;;;;19.77;5.00;;;;;;;9.53;62.98;101281.59;4422403;32;20534;-74
2020/12/02 03:08:13;;;;;;;26.52;5.57;;;;;;;9.60;63.20;101271.06;4424636;32;20082;-74
2020/12/02 03:10:41;;;;;;;26.73;5.93;;;;;;;9.53;63.25;101271.16;4423650;32;20076;-74
2020/12/02 03:13:17;;;;;;;19.90;5.30;;;;;;;9.62;63.35;101263.03;4422787;32;20013;-75
2020/12/02 03:15:43;;;;;;;23.33;6.95;;;;;;;9.66;63.79;101263.78;4423706;32;20417;-75
2020/12/02 03:18:09;;;;;;;24.40;6.05;;;;;;;9.55;64.88;101260.28;4424937;32;20056;-75
2020/12/02 03:20:40;;;;;;;25.27;5.70;;;;;;;9.66;65.08;101258.16;4419926;32;20085;-75
2020/12/02 03:23:10;;;;;;;27.37;6.45;;;;;;;9.67;65.66;101264.59;4423856;32;20049;-75
2020/12/02 03:25:37;;;;;;;25.33;6.25;;;;;;;9.67;65.54;101251.31;4419497;32;20103;-74
2020/12/02 03:28:03;;;;;;;20.60;5.75;;;;;;;9.84;64.79;101263.56;4412802;32;20422;-75
2020/12/02 03:30:29;;;;;;;23.15;6.05;;;;;;;9.91;65.01;101264.25;4414405;32;20450;-74
2020/12/02 03:32:55;;;;;;;21.45;5.60;;;;;;;9.68;66.46;101252.94;4414019;32;20614;-75
2020/12/02 03:35:21;;;;;;;20.08;5.43;;;;;;;9.80;65.91;101248.75;4409130;32;20113;-75
2020/12/02 03:37:46;;;;;;;21.02;5.10;;;;;;;9.79;66.57;101247.19;4413492;32;20034;-75
2020/12/02 03:40:12;;;;;;;33.20;6.05;;;;;;;9.72;67.49;101245.25;4413789;32;20099;-74
2020/12/02 03:42:40;;;;;;;16.40;5.30;;;;;;;9.56;68.33;101241.44;4413104;32;20097;-74
2020/12/02 03:45:09;;;;;;;19.85;6.05;;;;;;;9.71;67.85;101243.66;4414104;32;20112;-75
2020/12/02 03:47:36;;;;;;;21.98;5.50;;;;;;;9.75;67.97;101230.34;4412546;32;20065;-75
2020/12/02 03:50:04;;;;;;;23.50;6.07;;;;;;;9.71;68.43;101240.03;4412600;32;20042;-75
2020/12/02 03:52:30;;;;;;;19.80;5.50;;;;;;;9.69;68.78;101237.66;4415532;32;20042;-74
2020/12/02 03:54:55;;;;;;;20.35;5.40;;;;;;;9.75;68.23;101227.53;4413534;32;20134;-75
2020/12/02 03:57:21;;;;;;;20.05;5.62;;;;;;;9.75;68.64;101226.72;4413708;32;20080;-74
2020/12/02 03:59:47;;;;;;;25.80;6.10;;;;;;;9.58;69.57;101222.16;4414397;32;20066;-74
2020/12/02 04:02:12;;;;;;;17.45;6.03;;;;;;;9.63;69.54;101233.72;4411179;32;20085;-75
2020/12/02 04:04:38;;;;;;;22.13;6.70;;;;;;;9.59;69.99;101227.34;4413339;32;20429;-74
2020/12/02 04:07:04;;;;;;;20.75;6.93;;;;;;;9.62;70.42;101220.06;4413938;32;20070;-74
2020/12/02 04:09:29;;;;;;;22.45;6.50;;;;;;;9.52;71.00;101216.19;4409638;32;20499;-75
2020/12/02 04:11:55;;;;;;;18.45;6.05;;;;;;;9.58;71.09;101216.53;4412487;32;20515;-75
2020/12/02 04:14:21;;;;;;;23.45;7.03;;;;;;;9.60;71.29;101212.06;4413528;32;20132;-74
2020/12/02 04:16:47;;;;;;;36.30;8.70;;;;;;;9.60;71.16;101220.50;4412252;32;20074;-74
2020/12/02 04:19:12;;;;;;;27.80;8.50;;;;;;;9.56;71.55;101216.94;4411363;32;20030;-75
2020/12/02 04:21:38;;;;;;;26.40;7.22;;;;;;;9.59;71.52;101202.06;4411971;32;20423;-75
2020/12/02 04:24:04;;;;;;;23.20;7.95;;;;;;;9.62;71.31;101198.41;4411151;32;20056;-75
2020/12/02 04:26:29;;;;;;;17.35;6.95;;;;;;;9.46;72.23;101200.22;4410585;32;20407;-75
2020/12/02 04:28:55;;;;;;;27.62;8.18;;;;;;;9.44;72.39;101183.78;4414022;32;20464;-75
2020/12/02 04:31:20;;;;;;;21.65;7.93;;;;;;;9.45;72.24;101178.97;4409326;32;20123;-75
2020/12/02 04:33:46;;;;;;;17.60;7.15;;;;;;;9.40;72.40;101179.41;4412328;32;20536;-74
2020/12/02 04:36:13;;;;;;;26.45;8.10;;;;;;;9.42;72.85;101180.59;4411020;32;20382;-75
2020/12/02 04:38:39;;;;;;;20.15;7.65;;;;;;;9.43;72.76;101176.56;4409423;32;20065;-74
2020/12/02 04:41:15;;;;;;;21.00;8.23;;;;;;;9.36;72.96;101167.44;4409208;32;20137;-75
2020/12/02 04:43:45;;;;;;;18.70;8.13;;;;;;;9.33;73.19;101163.44;4412961;32;20081;-75
2020/12/02 04:46:18;;;;;;;29.55;9.18;;;;;;;9.35;73.20;101158.22;4409217;32;20070;-74
2020/12/02 04:48:48;;;;;;;32.90;9.30;;;;;;;9.13;73.90;101151.25;4422384;32;21122;-75
2020/12/02 04:51:24;;;;;;;18.05;9.20;;;;;;;9.16;74.30;101147.62;4410877;32;20056;-75
2020/12/02 04:53:53;;;;;;;26.12;9.48;;;;;;;9.08;74.36;101145.31;4409456;32;20022;-75
2020/12/02 04:56:19;;;;;;;26.23;10.68;;;;;;;9.00;74.78;101143.78;4410264;32;20357;-74
2020/12/02 04:58:49;;;;;;;27.27;10.30;;;;;;;9.00;74.77;101129.75;4412180;32;20023;-75
2020/12/02 05:11:56;;;;;;;22.50;10.80;;;;;;;9.24;74.84;101101.37;3988837;32;15031815;-75
2020/12/02 05:14:22;;;;;;;21.52;10.48;;;;;;;9.24;74.84;101101.37;4441292;32;20017;-75
2020/12/02 05:22:50;;;;;;;25.37;12.63;;;;;;;9.37;74.54;101090.38;3987401;32;15023357;-76
2020/12/02 05:25:33;;;;;;;23.02;10.85;;;;;;;9.37;74.54;101090.38;4437369;32;20087;-75
2020/12/02 05:33:38;;;;;;;29.08;11.93;;;;;;;9.54;73.90;101083.69;3985187;32;15021832;-76
2020/12/02 05:38:50;;;;;;;26.50;12.77;;;;;;;9.59;73.94;101078.44;3986795;31;15706527;-76
2020/12/02 05:41:17;;;;;;;36.25;13.07;;;;;;;9.59;73.94;101078.44;4466358;32;20067;-76
2020/12/02 05:43:52;;;;;;;27.48;13.05;;;;;;;9.17;74.87;101078.19;4465040;32;20445;-75
2020/12/02 05:46:42;;;;;;;29.75;14.45;;;;;;;9.16;75.18;101077.41;4465476;32;20017;-75
2020/12/02 05:49:12;;;;;;;36.20;14.57;;;;;;;9.08;75.12;101067.47;4456183;32;20033;-75
2020/12/02 05:51:41;;;;;;;25.17;13.57;;;;;;;9.05;75.54;101056.31;4467869;32;20080;-75
2020/12/02 05:54:12;;;;;;;29.70;14.20;;;;;;;9.12;75.71;101059.84;4468281;32;20076;-75
2020/12/02 05:56:39;;;;;;;29.87;14.77;;;;;;;9.11;75.91;101049.81;4470422;32;20088;-75
2020/12/02 05:59:06;;;;;;;38.00;15.50;;;;;;;9.06;75.96;101050.28;4468024;32;20085;-75
2020/12/02 06:01:32;;;;;;;34.03;15.40;;;;;;;9.24;76.00;101045.19;4467227;32;20024;-76
2020/12/02 06:03:59;;;;;;;41.53;16.48;;;;;;;9.31;75.37;101033.87;4463257;32;20028;-76
2020/12/02 06:06:30;;;;;;;36.55;15.65;;;;;;;9.31;75.42;101045.12;4464554;32;20066;-75
2020/12/02 06:08:57;;;;;;;36.88;15.57;;;;;;;9.36;74.99;101036.19;4469797;32;20080;-76
2020/12/02 06:11:29;;;;;;;32.05;15.75;;;;;;;9.42;75.03;101031.72;4466307;32;20044;-76
2020/12/02 06:22:02;;;;;;;30.10;15.00;;;;;;;10.16;72.81;101015.69;3983924;32;15024160;-74
2020/12/02 06:24:42;;;;;;;27.10;14.60;;;;;;;10.16;72.81;101015.69;4437417;32;20415;-73
2020/12/02 06:32:33;;;;;;;36.33;15.07;;;;;;;9.96;73.20;100988.28;4001821;31;15017632;-74
2020/12/02 06:41:20;;;;;;;30.98;15.00;;;;;;;10.22;72.66;100975.41;4000511;31;15017363;-74
2020/12/02 06:43:53;;;;;;;34.50;15.55;;;;;;;10.22;72.66;100975.41;4467500;32;20416;-77
2020/12/02 06:46:43;;;;;;;27.37;15.10;;;;;;;9.84;73.65;100965.59;4465107;32;20120;-75
2020/12/02 06:49:10;;;;;;;28.50;15.45;;;;;;;9.85;73.43;100962.37;4466918;32;20084;-74
2020/12/02 06:51:36;;;;;;;27.17;14.82;;;;;;;9.77;73.83;100954.50;4466818;32;20077;-74
2020/12/02 06:54:02;;;;;;;30.42;15.32;;;;;;;9.88;73.75;100958.69;4467205;32;20098;-74
2020/12/02 06:56:28;;;;;;;31.85;16.45;;;;;;;10.02;73.21;100958.44;4463015;32;20390;-74
2020/12/02 06:59:03;;;;;;;29.08;15.77;;;;;;;10.01;73.32;100953.25;4454844;32;20059;-75
2020/12/02 07:01:31;;;;;;;28.98;15.82;;;;;;;10.10;73.44;100945.09;4470274;32;20452;-74
2020/12/02 07:03:59;;;;;;;39.65;17.08;;;;;;;9.99;73.84;100939.63;4464301;32;20021;-73
2020/12/02 07:06:29;;;;;;;35.05;17.37;;;;;;;9.86;74.62;100915.37;4464481;32;20951;-73
2020/12/02 07:09:14;;;;;;;25.27;15.68;;;;;;;9.88;74.23;100924.97;4466718;32;20095;-75
2020/12/02 07:11:48;;;;;;;;;;;;;;;10.01;73.65;100923.09;4466251;32;20077;-74
2020/12/02 07:14:20;;;;;;;30.70;16.10;;;;;;;10.02;73.44;100921.09;4467853;32;19940;-74
2020/12/02 07:16:46;;;;;;;38.83;17.60;;;;;;;10.00;74.00;100915.91;4466785;32;20072;-74
2020/12/02 07:19:14;;;;;;;36.47;19.60;;;;;;;9.94;73.92;100908.37;4464805;32;20088;-75
2020/12/02 07:24:32;;;;;;;41.67;23.42;;;;;;;10.42;73.39;100922.75;3984381;32;15021733;-76
2020/12/02 07:26:58;;;;;;;33.53;19.73;;;;;;;10.42;73.39;100922.75;4436778;32;20030;-75
2020/12/02 07:29:26;;;;;;;43.28;19.75;;;;;;;9.99;74.42;100919.16;4433728;32;20018;-77
2020/12/02 07:34:42;;;;;;;40.22;20.25;;;;;;;10.65;72.92;100925.44;3981924;32;15025903;-76
2020/12/02 07:37:13;;;;;;;38.78;19.98;;;;;;;10.65;72.92;100925.44;4428897;32;20103;-75
2020/12/02 07:39:58;;;;;;;38.15;20.17;;;;;;;10.25;72.99;100929.53;4434571;32;20037;-75
2020/12/02 07:45:22;;;;;;;43.00;20.37;;;;;;;11.04;71.62;100933.84;3977387;32;15023010;-75
2020/12/02 07:47:53;;;;;;;36.38;19.10;;;;;;;11.04;71.62;100933.84;4429524;32;20046;-74
2020/12/02 07:50:39;;;;;;;37.60;18.52;;;;;;;10.66;72.18;100924.25;4427344;32;20530;-76
2020/12/02 07:55:51;;;;;;;38.10;18.33;;;;;;;11.19;71.29;100920.22;3979092;32;15025243;-75
2020/12/02 07:58:33;;;;;;;30.85;17.75;;;;;;;11.19;71.29;100920.22;4432334;32;20037;-75
2020/12/02 08:01:26;;;;;;;34.55;18.80;;;;;;;10.89;71.91;100912.88;4429467;32;20593;-78
2020/12/02 08:03:52;;;;;;;38.80;18.27;;;;;;;10.89;71.84;100915.69;4432875;32;20084;-76
2020/12/02 08:06:43;;;;;;;40.65;19.30;;;;;;;10.86;72.07;100901.69;4431767;32;20065;-78
2020/12/02 08:09:11;;;;;;;35.50;18.30;;;;;;;10.85;72.38;100900.09;4429977;32;20026;-76
2020/12/02 08:11:49;;;;;;;31.70;16.55;;;;;;;10.98;72.37;100904.63;4424897;32;20045;-77
2020/12/02 08:14:28;;;;;;;35.13;17.08;;;;;;;11.15;71.98;100894.16;4427396;32;20073;-76
2020/12/02 08:17:03;;;;;;;39.75;16.27;;;;;;;11.27;71.36;100901.91;4433558;32;20108;-75
2020/12/02 08:19:33;;;;;;;32.15;17.83;;;;;;;11.40;71.13;100891.53;4433910;32;20101;-75
2020/12/02 08:22:00;;;;;;;30.05;17.73;;;;;;;11.40;70.94;100892.34;4431261;32;20073;-75
2020/12/02 08:27:10;;;;;;;34.05;17.30;;;;;;;11.84;70.03;100894.44;3975788;32;15022115;-77
2020/12/02 08:29:36;;;;;;;30.02;16.95;;;;;;;11.84;70.03;100894.44;4419944;32;20085;-75
2020/12/02 08:32:17;;;;;;;32.35;17.77;;;;;;;11.60;70.01;100893.00;4416857;32;20108;-75
2020/12/02 08:34:43;;;;;;;35.28;19.95;;;;;;;11.65;69.11;100894.53;4418648;32;20111;-76
2020/12/02 08:39:55;;;;;;;32.08;16.55;;;;;;;11.74;69.82;100883.44;3979577;32;15022403;-81
2020/12/02 08:42:27;;;;;;;34.88;17.65;;;;;;;11.54;69.97;100872.22;4429637;32;20076;-77
2020/12/02 08:47:53;;;;;;;27.13;16.12;;;;;;;11.76;70.77;100858.41;3974486;32;15023537;-78
2020/12/02 08:50:30;;;;;;;30.27;16.20;;;;;;;11.76;70.77;100858.41;4425680;32;20045;-77
2020/12/02 08:52:59;;;;;;;25.02;15.13;;;;;;;11.45;71.62;100860.00;4408827;32;20112;-77
2020/12/02 08:55:25;;;;;;;25.75;14.60;;;;;;;11.51;72.03;100853.38;4411171;32;20117;-75
2020/12/02 08:57:52;;;;;;;26.05;12.98;;;;;;;11.67;71.79;100849.78;4409941;32;20065;-78
2020/12/02 09:00:21;;;;;;;28.73;14.80;;;;;;;11.83;71.15;100839.28;4410098;32;20106;-77
2020/12/02 09:02:47;;;;;;;22.55;13.02;;;;;;;11.82;71.16;100834.84;4412056;32;20077;-78
2020/12/02 09:05:13;;;;;;;23.27;11.75;;;;;;;11.92;71.18;100830.16;4406747;32;20128;-75
2020/12/02 09:07:38;;;;;;;23.38;11.98;;;;;;;11.97;71.13;100829.63;4409842;32;21238;-75
2020/12/02 09:10:06;;;;;;;17.98;10.65;;;;;;;12.09;70.66;100826.84;4408263;32;20068;-75
2020/12/02 09:12:31;;;;;;;21.23;10.70;;;;;;;12.18;70.41;100829.00;4410732;32;20030;-76
2020/12/02 09:14:57;;;;;;;15.93;10.30;;;;;;;12.22;70.18;100826.87;4405353;32;20023;-76
2020/12/02 09:17:23;;;;;;;14.55;7.93;;;;;;;12.20;70.40;100818.06;4408562;32;20039;-76
2020/12/02 09:19:50;;;;;;;16.92;8.68;;;;;;;12.10;70.25;100808.66;4408137;32;20144;-76
2020/12/02 09:22:17;;;;;;;14.40;9.50;;;;;;;12.26;69.72;100813.44;4407810;32;20101;-76
2020/12/02 09:24:44;;;;;;;14.82;9.30;;;;;;;12.24;70.16;100807.44;4404695;32;20342;-77
2020/12/02 09:27:11;;;;;;;14.57;8.93;;;;;;;12.36;70.06;100805.91;4410485;32;20045;-77
2020/12/02 09:29:37;;;;;;;13.50;9.20;;;;;;;12.45;69.50;100804.00;4410659;32;20091;-77
2020/12/02 09:32:04;;;;;;;14.82;9.40;;;;;;;12.50;69.62;100789.34;4411730;32;20144;-76
2020/12/02 09:34:29;;;;;;;16.65;10.40;;;;;;;12.58;69.05;100779.37;4408566;32;20068;-77
2020/12/02 09:36:57;;;;;;;18.05;11.02;;;;;;;12.53;69.44;100776.34;4393438;32;20078;-77
2020/12/02 09:39:23;;;;;;;14.68;10.05;;;;;;;12.58;68.98;100776.56;4406136;32;20058;-77
2020/12/02 09:49:46;;;;;;;9.63;5.25;;;;;;;13.17;67.26;100747.62;3980693;32;15022237;-78
2020/12/02 09:54:47;;;;;;;8.95;6.12;;;;;;;13.27;67.04;100738.78;4006947;31;15023097;-77
2020/12/02 10:00:07;;;;;;;6.60;4.85;;;;;;;13.42;65.94;100739.06;3982233;32;15021743;-77
2020/12/02 10:05:52;;;;;;;8.50;5.50;;;;;;;12.95;67.18;100726.97;3987836;31;15017443;-80
2020/12/02 10:16:57;;;;;;;7.47;4.90;;;;;;;13.36;66.90;100729.56;3982486;32;15022452;-77
2020/12/02 10:30:27;;;;;;;9.77;6.62;;;;;;;13.66;65.78;100700.63;3987956;32;15066648;-77
2020/12/02 10:33:27;;;;;;;11.52;6.80;;;;;;;13.66;65.78;100700.63;4445461;32;20055;-77
2020/12/02 10:35:54;;;;;;;11.32;6.10;;;;;;;13.18;66.91;100704.78;4446803;32;20038;-77
2020/12/02 10:52:02;;;;;;;8.73;5.15;;;;;;;13.53;65.87;100680.87;3969885;32;15021776;-76
2020/12/02 10:54:35;;;;;;;11.23;6.95;;;;;;;13.53;65.87;100680.87;4417175;32;20069;-78
2020/12/02 10:57:05;;;;;;;15.57;7.93;;;;;;;13.22;66.60;100685.66;4406001;32;20159;-79
2020/12/02 10:59:31;;;;;;;12.82;7.65;;;;;;;13.02;67.40;100679.50;4413232;32;20018;-81
2020/12/02 11:01:56;;;;;;;12.77;7.12;;;;;;;13.02;67.59;100673.06;4412071;32;20037;-80
2020/12/02 11:04:22;;;;;;;12.57;8.52;;;;;;;13.13;67.21;100659.38;4411771;32;20058;-77
2020/12/02 11:07:02;;;;;;;16.23;8.77;;;;;;;12.79;68.41;100650.87;4411696;32;20116;-80
2020/12/02 11:09:53;;;;;;;12.13;7.72;;;;;;;13.16;67.61;100649.97;4410265;32;20096;-77
2020/12/02 11:18:27;;;;;;;16.75;9.30;;;;;;;13.44;66.72;100640.47;3984384;32;15021146;-77
2020/12/02 11:26:33;;;;;;;13.13;8.43;;;;;;;13.76;65.94;100615.38;3992651;31;15107470;-75
2020/12/02 11:29:01;;;;;;;13.20;8.40;;;;;;;13.53;66.20;100601.72;4451732;32;20115;-78
2020/12/02 11:37:51;;;;;;;12.93;8.70;;;;;;;14.32;64.25;100586.84;3981850;32;15023246;-77
2020/12/02 11:40:26;;;;;;;6.72;4.78;;;;;;;14.32;64.25;100586.84;4434748;32;21328;-77
2020/12/02 11:51:33;;;;;;;1.87;1.33;;;;;;;13.45;65.83;100583.47;3977721;32;15027323;-77
2020/12/02 11:54:03;;;;;;;2.53;1.42;;;;;;;13.45;65.83;100583.47;4424177;32;20049;-74
2020/12/02 12:10:21;;;;;;;1.98;0.80;;;;;;;12.06;66.91;100593.59;3958253;32;15725458;-84
2020/12/02 12:15:38;;;;;;;4.70;0.65;;;;;;;12.18;65.90;100594.06;3990744;32;15024452;-77
2020/12/02 12:18:15;;;;;;;2.70;0.55;;;;;;;12.18;65.90;100594.06;4446141;32;20080;-79
2020/12/02 12:20:43;;;;;;;5.30;0.50;;;;;;;11.73;65.64;100594.28;4446688;32;20077;-80
2020/12/02 12:25:46;;;;;;;3.95;0.57;;;;;;;11.80;64.96;100583.59;3973762;32;15076046;-77
2020/12/02 12:30:57;;;;;;;3.65;0.88;;;;;;;11.75;64.44;100580.53;3975451;32;15066359;-75
2020/12/02 12:33:33;;;;;;;6.20;1.30;;;;;;;11.75;64.44;100580.53;4425594;32;20073;-75
2020/12/02 12:36:07;;;;;;;5.12;0.90;;;;;;;11.50;64.90;100570.00;4429271;32;20208;-73
2020/12/02 12:38:40;;;;;;;7.47;1.08;;;;;;;11.51;64.07;100570.78;4426342;32;20099;-75
2020/12/02 12:41:19;;;;;;;5.72;0.95;;;;;;;11.54;63.39;100559.41;4424606;32;20157;-77
2020/12/02 12:43:56;;;;;;;8.02;1.90;;;;;;;11.49;63.73;100553.53;4425744;32;20079;-75
2020/12/02 12:46:38;;;;;;;7.55;1.48;;;;;;;11.62;63.34;100548.72;4429525;32;20123;-74
2020/12/02 12:49:04;;;;;;;6.45;0.85;;;;;;;11.56;63.15;100544.84;4428296;32;20042;-76
2020/12/02 12:51:31;;;;;;;11.73;2.20;;;;;;;11.66;62.76;100538.16;4416936;32;20139;-73
2020/12/02 12:54:02;;;;;;;14.93;4.45;;;;;;;11.81;62.64;100540.06;4415042;32;20119;-74
2020/12/02 12:56:29;;;;;;;16.87;4.25;;;;;;;12.02;62.52;100527.28;4411751;32;20414;-76
2020/12/02 12:58:55;;;;;;;15.98;4.55;;;;;;;12.10;61.89;100518.13;4411973;32;20085;-76
2020/12/02 13:01:21;;;;;;;11.55;1.98;;;;;;;12.17;61.91;100521.94;4412995;32;20105;-74
2020/12/02 13:03:48;;;;;;;9.02;2.30;;;;;;;12.11;61.37;100513.28;4411449;32;20081;-75
2020/12/02 13:11:59;;;;;;;15.90;1.98;;;;;;;12.46;59.44;100500.78;3985064;32;15038403;-73
2020/12/02 13:14:38;;;;;;;13.73;2.17;;;;;;;12.19;60.27;100499.72;4439814;32;20059;-76
2020/12/02 13:17:15;;;;;;;13.35;2.33;;;;;;;12.01;60.25;100478.56;4437114;32;20188;-75
2020/12/02 13:19:56;;;;;;;12.45;2.72;;;;;;;12.28;60.87;100480.84;4439128;32;20119;-76
2020/12/02 13:23:02;;;;;;;18.02;2.70;;;;;;;12.45;60.08;100470.97;4437919;32;20096;-75
2020/12/02 13:25:35;;;;;;;16.83;2.42;;;;;;;12.68;59.58;100479.00;4437421;32;20041;-78
2020/12/02 13:28:13;;;;;;;10.75;1.60;;;;;;;12.68;59.48;100462.06;4437676;32;20069;-77
2020/12/02 13:30:51;;;;;;;12.50;2.53;;;;;;;12.99;57.69;100464.91;4437735;32;20054;-75
2020/12/02 13:33:24;;;;;;;13.70;3.22;;;;;;;12.90;57.82;100471.31;4435485;32;20074;-77
2020/12/02 13:35:51;;;;;;;15.93;3.00;;;;;;;13.08;56.68;100465.00;4437610;32;20072;-77
2020/12/02 13:38:17;;;;;;;14.25;2.67;;;;;;;13.21;56.42;100454.41;4437737;32;20073;-80
2020/12/02 13:40:43;;;;;;;14.75;2.67;;;;;;;13.51;55.09;100457.22;4437074;32;20123;-76
2020/12/02 13:43:22;;;;;;;14.75;2.30;;;;;;;13.33;55.01;100464.81;4437282;32;20118;-75
2020/12/02 13:45:49;;;;;;;9.48;1.98;;;;;;;13.33;54.51;100465.62;4439464;32;20041;-77
2020/12/02 13:48:16;;;;;;;15.48;2.50;;;;;;;12.86;54.00;100470.63;4436687;32;20095;-78
2020/12/02 13:50:43;;;;;;;17.80;2.10;;;;;;;12.96;54.13;100463.81;4436854;32;20046;-77
2020/12/02 13:53:21;;;;;;;8.88;2.00;;;;;;;12.78;54.23;100472.16;4434669;32;20064;-79
2020/12/02 13:56:10;;;;;;;15.43;2.05;;;;;;;12.78;53.84;100472.16;4431314;32;20851;-78
2020/12/02 14:09:23;;;;;;;18.23;3.70;;;;;;;12.82;55.39;100461.50;3979034;32;15026146;-78
2020/12/02 14:11:54;;;;;;;16.92;2.78;;;;;;;12.82;55.39;100461.50;4425751;32;20073;-77
2020/12/02 14:14:28;;;;;;;13.73;3.05;;;;;;;12.17;56.70;100463.50;4423686;32;20038;-76
2020/12/02 14:16:54;;;;;;;14.50;2.53;;;;;;;12.05;56.34;100453.03;4425553;32;20077;-77
2020/12/02 14:19:21;;;;;;;16.50;2.90;;;;;;;11.97;56.64;100457.37;4422839;32;20424;-78
2020/12/02 14:22:00;;;;;;;14.87;2.83;;;;;;;11.71;57.29;100456.63;4427179;32;20082;-80
2020/12/02 14:24:25;;;;;;;11.32;2.33;;;;;;;11.87;56.88;100459.28;4425572;32;20515;-76
2020/12/02 14:26:51;;;;;;;13.50;2.53;;;;;;;11.74;57.28;100466.19;4424782;32;20073;-79
2020/12/02 14:29:17;;;;;;;19.87;2.70;;;;;;;11.57;56.66;100468.31;4425665;32;20074;-76
2020/12/02 14:31:43;;;;;;;16.92;3.00;;;;;;;11.54;56.37;100460.00;4426271;32;20065;-79
2020/12/02 14:34:08;;;;;;;12.35;2.20;;;;;;;11.44;56.77;100453.44;4428906;32;20188;-77
2020/12/02 14:36:34;;;;;;;13.62;2.67;;;;;;;11.44;57.02;100447.81;4426501;32;20155;-79
2020/12/02 14:38:59;;;;;;;20.00;2.85;;;;;;;11.41;56.84;100456.38;4431284;32;20671;-79
2020/12/02 14:41:26;;;;;;;13.90;2.22;;;;;;;11.29;57.32;100455.13;4428748;32;20114;-77
2020/12/02 14:43:52;;;;;;;17.05;2.67;;;;;;;11.30;56.99;100437.00;4425635;32;20030;-79
2020/12/02 14:46:18;;;;;;;16.42;2.00;;;;;;;11.32;57.00;100431.69;4427195;32;20154;-78
2020/12/02 14:48:44;;;;;;;21.52;2.50;;;;;;;11.23;56.69;100433.63;4424183;32;20073;-80
2020/12/02 14:51:09;;;;;;;18.40;2.50;;;;;;;11.17;57.69;100424.94;4424114;32;20068;-79
2020/12/02 14:53:36;;;;;;;21.48;3.30;;;;;;;11.09;57.47;100434.84;4423711;32;20182;-76
2020/12/02 14:56:10;;;;;;;17.15;2.17;;;;;;;11.00;57.99;100433.94;4420612;32;20053;-78